Time;durP1;ratioP1;P1;durP2;ratioP2;P2;SDS_P1;SDS_P2;PMS_P1;PMS_P2;Temp;Humidity;BMP_temperature;BMP_pressure;BME280_temperature;BME280_humidity;BME280_pressure;Samples;Min_cycle;Max_cycle;Signal;HPM_P1;HPM_P2
2023/03/05 00:01:48;;;;;;;11.65;10.90;;;2.10;99.90;;;;;;5066987;28;20022;-77
2023/03/05 00:04:29;;;;;;;0.73;0.73;;;2.10;99.90;;;;;;5068609;28;20040;-76
2023/03/05 00:06:55;;;;;;;0.65;0.65;;;2.10;99.90;;;;;;5066943;28;20041;-77
2023/03/05 00:09:21;;;;;;;0.10;0.10;;;2.00;99.90;;;;;;5055195;28;20033;-77
2023/03/05 00:11:55;;;;;;;0.52;0.52;;;2.10;99.90;;;;;;5067933;28;20032;-77
2023/03/05 00:14:27;;;;;;;0.10;0.10;;;2.10;99.90;;;;;;5066913;28;20029;-76
2023/03/05 00:16:58;;;;;;;;;;;2.20;99.90;;;;;;5088636;28;20055;-76
2023/03/05 00:19:34;;;;;;;25.85;7.32;;;2.20;99.90;;;;;;5134839;28;19961;-76
2023/03/05 00:22:04;;;;;;;0.05;0.05;;;2.20;99.90;;;;;;5134451;27;20498;-76
2023/03/05 00:24:34;;;;;;;0.10;0.10;;;2.30;99.90;;;;;;5137287;28;20035;-76
2023/03/05 00:27:02;;;;;;;0.00;0.00;;;2.20;99.90;;;;;;5119824;28;20020;-77
2023/03/05 00:29:43;;;;;;;0.10;0.10;;;2.30;99.90;;;;;;5138711;27;20015;-76
2023/03/05 00:32:09;;;;;;;0.08;0.08;;;2.30;99.90;;;;;;5108635;27;20235;-77
2023/03/05 00:34:36;;;;;;;0.10;0.10;;;2.30;99.90;;;;;;5116612;28;20498;-77
2023/03/05 00:37:02;;;;;;;0.10;0.10;;;2.30;99.90;;;;;;5131308;27;20015;-76
2023/03/05 00:40:01;;;;;;;0.28;0.28;;;1.30;99.90;;;;;;5137148;27;20051;-76
2023/03/05 00:42:28;;;;;;;0.10;0.10;;;2.40;99.90;;;;;;5137685;28;20027;-76
2023/03/05 00:44:57;;;;;;;0.10;0.10;;;2.40;99.90;;;;;;5125648;27;20015;-76
2023/03/05 00:47:23;;;;;;;2.38;2.28;;;2.40;99.90;;;;;;5136970;27;20157;-76
2023/03/05 00:49:48;;;;;;;10.75;10.23;;;2.40;99.90;;;;;;5138841;27;20035;-76
2023/03/05 00:52:26;;;;;;;0.10;0.10;;;2.40;99.90;;;;;;5134682;28;20046;-77
2023/03/05 00:54:52;;;;;;;1.65;1.55;;;3.50;99.90;;;;;;5137845;28;20024;-76
2023/03/05 00:57:18;;;;;;;3.50;3.40;;;2.20;99.90;;;;;;5136454;28;20026;-77
2023/03/05 00:59:48;;;;;;;0.20;0.20;;;2.20;99.90;;;;;;5138310;22;20546;-77
2023/03/05 01:02:14;;;;;;;8.52;4.35;;;2.20;99.90;;;;;;5132394;28;20027;-76
2023/03/05 01:04:40;;;;;;;0.10;0.10;;;2.20;99.90;;;;;;5115600;28;20031;-76
2023/03/05 01:07:06;;;;;;;5.85;5.65;;;2.20;99.90;;;;;;5118446;28;20012;-76
2023/03/05 01:09:32;;;;;;;0.20;0.20;;;2.20;99.90;;;;;;5135304;27;20015;-76
2023/03/05 01:11:58;;;;;;;0.00;0.00;;;2.30;99.90;;;;;;5135284;28;20141;-76
2023/03/05 01:14:34;;;;;;;0.10;0.10;;;2.30;99.90;;;;;;5117693;27;20034;-76
2023/03/05 01:17:25;;;;;;;0.10;0.10;;;2.30;99.90;;;;;;5132630;28;20075;-77
2023/03/05 01:19:51;;;;;;;2.05;1.95;;;2.20;99.90;;;;;;5131308;28;20058;-76
2023/03/05 01:22:17;;;;;;;8.98;8.10;;;2.10;99.90;;;;;;5129079;28;20047;-76
2023/03/05 01:24:43;;;;;;;1.00;1.00;;;2.10;99.90;;;;;;5110126;28;20008;-76
2023/03/05 01:27:21;;;;;;;5.35;5.15;;;2.10;99.90;;;;;;5126161;28;20908;-76
2023/03/05 01:29:47;;;;;;;0.10;0.10;;;;;;;;;;5122062;28;20296;-77
2023/03/05 01:32:13;;;;;;;2.38;2.28;;;2.10;99.90;;;;;;5121342;27;20037;-76
2023/03/05 01:34:40;;;;;;;0.00;0.00;;;2.10;99.90;;;;;;5116093;28;20513;-76
2023/03/05 01:37:07;;;;;;;2.47;2.38;;;2.10;99.90;;;;;;5129299;28;20031;-76
2023/03/05 01:39:35;;;;;;;0.10;0.10;;;2.00;99.90;;;;;;5107877;28;20015;-76
2023/03/05 01:42:01;;;;;;;0.43;0.43;;;1.90;99.90;;;;;;5122438;28;20004;-76
2023/03/05 01:44:29;;;;;;;0.10;0.10;;;1.90;99.90;;;;;;5108587;28;20527;-76
2023/03/05 01:46:56;;;;;;;0.20;0.20;;;1.90;99.90;;;;;;5109629;28;20008;-76
2023/03/05 01:49:25;;;;;;;0.00;0.00;;;1.90;99.90;;;;;;5129488;28;20067;-76
2023/03/05 01:52:16;;;;;;;8.88;4.78;;;1.90;99.90;;;;;;5133138;28;20020;-75
2023/03/05 01:54:46;;;;;;;0.10;0.10;;;1.80;99.90;;;;;;5132847;28;20095;-76
2023/03/05 01:57:18;;;;;;;0.40;0.40;;;1.70;99.90;;;;;;5135170;28;20051;-75
2023/03/05 01:59:47;;;;;;;0.10;0.10;;;1.70;99.90;;;;;;5110393;28;20066;-75
2023/03/05 02:02:13;;;;;;;0.13;0.13;;;1.70;99.90;;;;;;5111558;28;20016;-75
2023/03/05 02:04:50;;;;;;;34.53;29.30;;;1.60;99.90;;;;;;5111474;27;20473;-78
2023/03/05 02:07:16;;;;;;;0.10;0.10;;;1.60;99.90;;;;;;5111726;27;20030;-76
2023/03/05 02:10:05;;;;;;;7.82;7.53;;;1.60;99.90;;;;;;5097054;28;20036;-75
2023/03/05 02:12:41;;;;;;;0.10;0.10;;;1.60;99.90;;;;;;5111756;28;20028;-75
2023/03/05 02:15:15;;;;;;;0.15;0.15;;;1.50;99.90;;;;;;5107074;28;20017;-75
2023/03/05 02:17:41;;;;;;;0.20;0.20;;;1.50;99.90;;;;;;5111910;28;20107;-75
2023/03/05 02:20:43;;;;;;;1.02;1.02;;;1.50;99.90;;;;;;5110992;28;20036;-75
2023/03/05 02:23:12;;;;;;;0.28;0.28;;;1.40;99.90;;;;;;5087334;28;20060;-76
2023/03/05 02:25:40;;;;;;;0.10;0.10;;;1.40;99.90;;;;;;5103577;28;20562;-76
2023/03/05 02:28:27;;;;;;;0.10;0.10;;;1.40;99.90;;;;;;5103418;28;20000;-76
2023/03/05 02:30:53;;;;;;;0.10;0.10;;;1.30;99.90;;;;;;5107635;28;20043;-75
2023/03/05 02:33:42;;;;;;;0.88;0.88;;;1.30;99.90;;;;;;5106884;27;20008;-76
2023/03/05 02:36:32;;;;;;;15.57;14.93;;;1.30;99.90;;;;;;5103671;28;20028;-76
2023/03/05 02:39:02;;;;;;;0.20;0.20;;;1.20;99.90;;;;;;5105458;27;20012;-76
2023/03/05 02:41:28;;;;;;;7.32;6.90;;;1.20;99.90;;;;;;5105984;28;20028;-76
2023/03/05 02:43:54;;;;;;;0.00;0.00;;;1.10;99.90;;;;;;5110422;27;20033;-76
2023/03/05 02:46:28;;;;;;;0.20;0.20;;;1.10;99.90;;;;;;5112585;28;20076;-76
2023/03/05 02:48:54;;;;;;;0.10;0.10;;;1.10;99.90;;;;;;5103973;28;20028;-76
2023/03/05 02:51:20;;;;;;;0.20;0.20;;;1.20;99.90;;;;;;5106016;28;20035;-75
2023/03/05 02:53:50;;;;;;;0.10;0.10;;;1.20;99.90;;;;;;5094155;27;20217;-76
2023/03/05 02:56:17;;;;;;;0.47;0.47;;;1.20;99.90;;;;;;5097988;28;20010;-76
2023/03/05 02:58:46;;;;;;;0.10;0.10;;;1.20;99.90;;;;;;5099956;28;20023;-76
2023/03/05 03:01:23;;;;;;;0.25;0.25;;;1.20;99.90;;;;;;5106447;28;20044;-75
2023/03/05 03:06:14;;;;;;;0.13;0.13;;;1.20;99.90;;;;;;5198918;22;20078;-76
2023/03/05 03:08:40;;;;;;;0.13;0.13;;;1.10;99.90;;;;;;5143275;27;20024;-75
2023/03/05 03:11:13;;;;;;;0.10;0.10;;;1.10;99.90;;;;;;5149369;28;20042;-76
2023/03/05 03:13:39;;;;;;;0.10;0.10;;;1.10;99.90;;;;;;5154425;27;20024;-77
2023/03/05 03:16:29;;;;;;;0.10;0.10;;;1.10;99.90;;;;;;5153443;27;20020;-75
2023/03/05 03:18:55;;;;;;;0.20;0.20;;;1.20;99.90;;;;;;5154432;27;20058;-75
2023/03/05 03:21:33;;;;;;;0.10;0.10;;;1.80;99.90;;;;;;5139597;27;20075;-75
2023/03/05 03:23:59;;;;;;;0.10;0.10;;;1.30;99.90;;;;;;5158492;27;20074;-77
2023/03/05 03:26:25;;;;;;;3.30;3.20;;;1.30;99.90;;;;;;5157082;27;20048;-75
2023/03/05 03:28:51;;;;;;;0.20;0.20;;;1.30;99.90;;;;;;5139140;27;20007;-75
2023/03/05 03:31:17;;;;;;;0.10;0.10;;;1.40;99.90;;;;;;5154465;27;20042;-75
2023/03/05 03:33:55;;;;;;;3.30;3.20;;;1.30;99.90;;;;;;5158109;27;20027;-76
2023/03/05 03:36:41;;;;;;;0.10;0.10;;;1.40;99.90;;;;;;5155591;27;20043;-77
2023/03/05 03:39:10;;;;;;;0.10;0.10;;;1.40;99.90;;;;;;5158558;27;20031;-75
2023/03/05 03:41:40;;;;;;;1.60;1.55;;;1.40;99.90;;;;;;5157213;27;20052;-77
2023/03/05 03:44:09;;;;;;;0.10;0.10;;;1.40;99.90;;;;;;5148871;27;19995;-76
2023/03/05 03:46:36;;;;;;;0.10;0.10;;;1.40;99.90;;;;;;5139763;27;20030;-76
2023/03/05 03:49:21;;;;;;;0.75;0.75;;;1.50;99.90;;;;;;5149806;27;20170;-76
2023/03/05 03:51:50;;;;;;;0.10;0.10;;;1.50;99.90;;;;;;5148198;27;20016;-75
2023/03/05 03:54:17;;;;;;;0.10;0.10;;;1.50;99.90;;;;;;5146691;27;20228;-76
2023/03/05 03:56:43;;;;;;;0.20;0.20;;;1.50;99.90;;;;;;5147906;27;20019;-75
2023/03/05 03:59:14;;;;;;;0.10;0.10;;;1.60;99.90;;;;;;5134507;27;20059;-75
2023/03/05 04:01:40;;;;;;;1.58;1.55;;;1.60;99.90;;;;;;5133046;28;20028;-78
2023/03/05 04:04:15;;;;;;;0.10;0.10;;;1.60;99.90;;;;;;5132770;27;20031;-75
2023/03/05 04:06:41;;;;;;;0.20;0.20;;;1.70;99.90;;;;;;5104522;28;20339;-76
2023/03/05 04:09:07;;;;;;;0.10;0.10;;;1.70;99.90;;;;;;5123838;28;20008;-75
2023/03/05 04:11:34;;;;;;;0.20;0.20;;;1.70;99.90;;;;;;5102168;28;20023;-76
2023/03/05 04:14:00;;;;;;;1.75;1.55;;;1.70;99.90;;;;;;5113214;28;20000;-76
2023/03/05 04:16:47;;;;;;;0.13;0.13;;;1.70;99.90;;;;;;5132006;28;20035;-76
2023/03/05 04:19:13;;;;;;;25.95;18.52;;;1.70;99.90;;;;;;5112305;28;20031;-75
2023/03/05 04:21:39;;;;;;;0.10;0.10;;;1.60;99.90;;;;;;5115655;28;20019;-75
2023/03/05 04:24:23;;;;;;;0.10;0.10;;;1.50;99.90;;;;;;5127133;28;20050;-76
2023/03/05 04:26:49;;;;;;;0.10;0.10;;;1.40;99.90;;;;;;5107684;27;20107;-76
2023/03/05 04:29:18;;;;;;;3.75;3.55;;;1.30;99.90;;;;;;5124715;27;20311;-77
2023/03/05 04:31:44;;;;;;;0.20;0.20;;;1.30;99.90;;;;;;5128974;28;20071;-75
2023/03/05 04:34:13;;;;;;;0.10;0.10;;;1.30;99.90;;;;;;5107378;28;20019;-76
2023/03/05 04:36:39;;;;;;;0.10;0.10;;;1.30;99.90;;;;;;5129676;28;20003;-76
2023/03/05 04:39:05;;;;;;;15.48;14.40;;;1.30;99.90;;;;;;5131502;28;20016;-75
2023/03/05 04:41:41;;;;;;;0.20;0.20;;;1.40;99.90;;;;;;5131359;28;20081;-76
2023/03/05 04:44:42;;;;;;;6.47;6.03;;;1.40;99.90;;;;;;5130085;28;20083;-76
2023/03/05 04:47:07;;;;;;;1.48;1.48;;;1.40;99.90;;;;;;5118962;27;20015;-75
2023/03/05 04:49:50;;;;;;;0.57;0.57;;;1.50;99.90;;;;;;5134999;28;20007;-77
2023/03/05 04:52:15;;;;;;;4.68;4.47;;;1.50;99.90;;;;;;5132425;27;20024;-76
2023/03/05 04:54:42;;;;;;;0.20;0.20;;;1.50;99.90;;;;;;5103698;28;20080;-77
2023/03/05 04:57:35;;;;;;;0.10;0.10;;;1.50;99.90;;;;;;5116684;28;20119;-76
2023/03/05 05:00:04;;;;;;;0.28;0.28;;;1.50;99.90;;;;;;5035177;28;20025;-75
2023/03/05 05:02:36;;;;;;;0.10;0.10;;;1.50;99.90;;;;;;5035025;28;20034;-76
2023/03/05 05:05:03;;;;;;;0.10;0.10;;;1.40;99.90;;;;;;5051688;28;20013;-77
2023/03/05 05:07:31;;;;;;;4.57;4.18;;;1.40;99.90;;;;;;5051218;28;20040;-75
2023/03/05 05:10:25;;;;;;;0.40;0.40;;;1.50;99.90;;;;;;5050397;28;20041;-77
2023/03/05 05:13:07;;;;;;;0.10;0.10;;;1.50;99.90;;;;;;5055021;28;20069;-76
2023/03/05 05:15:38;;;;;;;0.10;0.10;;;1.60;99.90;;;;;;5050678;28;20037;-75
2023/03/05 05:18:14;;;;;;;0.70;0.70;;;1.60;99.90;;;;;;5050899;28;20049;-76
2023/03/05 05:20:40;;;;;;;0.25;0.25;;;2.30;99.90;;;;;;5053522;28;20010;-75
2023/03/05 05:23:05;;;;;;;0.10;0.10;;;1.60;99.90;;;;;;5048166;28;20048;-76
2023/03/05 05:25:37;;;;;;;0.10;0.10;;;1.60;99.90;;;;;;5050711;28;20063;-76
2023/03/05 05:28:14;;;;;;;0.20;0.20;;;1.60;99.90;;;;;;5046533;28;20097;-75
2023/03/05 05:30:40;;;;;;;1.25;1.25;;;1.60;99.90;;;;;;5048880;28;20022;-76
2023/03/05 05:33:12;;;;;;;0.10;0.10;;;1.60;99.90;;;;;;5050882;28;20057;-76
2023/03/05 05:35:43;;;;;;;8.65;3.72;;;1.70;99.90;;;;;;5035812;28;20028;-75
2023/03/05 05:38:09;;;;;;;0.10;0.10;;;1.70;99.90;;;;;;5115748;28;20390;-76
2023/03/05 05:40:35;;;;;;;0.20;0.20;;;1.60;99.90;;;;;;5102510;28;20032;-77
2023/03/05 05:43:01;;;;;;;0.10;0.10;;;1.50;99.90;;;;;;5103059;28;20398;-76
2023/03/05 05:45:30;;;;;;;0.10;0.10;;;1.50;99.90;;;;;;5101905;28;20113;-77
2023/03/05 05:47:55;;;;;;;0.10;0.10;;;1.60;99.90;;;;;;5084484;28;20026;-76
2023/03/05 05:50:21;;;;;;;0.10;0.10;;;1.20;99.90;;;;;;5102136;28;20016;-76
2023/03/05 05:52:47;;;;;;;0.10;0.10;;;1.70;99.90;;;;;;5115999;28;20456;-76
2023/03/05 05:55:13;;;;;;;0.10;0.10;;;1.70;99.90;;;;;;5081645;28;20236;-76
2023/03/05 05:57:38;;;;;;;9.70;8.63;;;0.40;99.90;;;;;;5107824;28;20015;-76
2023/03/05 06:00:08;;;;;;;3.00;2.85;;;1.80;99.90;;;;;;5114773;28;20028;-76
2023/03/05 06:02:36;;;;;;;0.52;0.52;;;1.60;99.90;;;;;;5105679;28;20030;-76
2023/03/05 06:05:01;;;;;;;3.13;3.03;;;1.80;99.90;;;;;;5086000;28;20051;-76
2023/03/05 06:07:27;;;;;;;8.32;8.02;;;1.90;99.90;;;;;;5105913;28;20031;-76
2023/03/05 06:09:53;;;;;;;0.10;0.10;;;1.50;99.90;;;;;;5106237;28;20051;-77
2023/03/05 06:12:21;;;;;;;0.10;0.10;;;;;;;;;;5101628;28;20047;-77
2023/03/05 06:14:47;;;;;;;0.15;0.15;;;2.00;99.90;;;;;;5085336;28;20229;-76
2023/03/05 06:17:13;;;;;;;0.10;0.10;;;2.00;99.90;;;;;;5083014;28;20118;-77
2023/03/05 06:19:39;;;;;;;0.10;0.10;;;1.90;99.90;;;;;;5082545;28;20036;-77
2023/03/05 06:22:04;;;;;;;0.10;0.10;;;2.00;99.90;;;;;;5107405;28;20034;-76
2023/03/05 06:24:30;;;;;;;4.78;4.57;;;2.00;99.90;;;;;;5107909;28;20477;-76
2023/03/05 06:26:56;;;;;;;0.10;0.10;;;2.00;99.90;;;;;;5113670;27;20023;-77
2023/03/05 06:29:21;;;;;;;0.10;0.10;;;2.00;99.90;;;;;;5109762;28;20390;-76
2023/03/05 06:31:47;;;;;;;0.10;0.10;;;1.20;99.90;;;;;;5105609;28;20181;-76
2023/03/05 06:34:13;;;;;;;0.10;0.10;;;2.20;99.90;;;;;;5101995;28;20085;-77
2023/03/05 06:36:39;;;;;;;0.10;0.10;;;2.30;99.90;;;;;;5114640;28;20087;-76
2023/03/05 06:39:05;;;;;;;0.10;0.10;;;2.40;99.90;;;;;;5107577;27;20036;-77
2023/03/05 06:41:33;;;;;;;3.03;2.92;;;2.50;99.90;;;;;;5120008;28;20015;-77
2023/03/05 06:44:03;;;;;;;2.38;2.28;;;2.60;99.90;;;;;;5103711;28;20170;-76
2023/03/05 06:46:33;;;;;;;9.20;8.40;;;2.60;99.90;;;;;;5112429;28;20020;-77
2023/03/05 06:49:01;;;;;;;0.10;0.10;;;2.70;99.90;;;;;;5118333;28;20161;-78
2023/03/05 06:51:29;;;;;;;0.10;0.10;;;2.90;99.90;;;;;;5116514;28;20020;-76
2023/03/05 06:54:04;;;;;;;0.55;0.55;;;2.80;99.90;;;;;;5087429;28;20024;-76
2023/03/05 06:56:30;;;;;;;4.00;3.80;;;2.90;99.90;;;;;;5086873;28;20257;-77
2023/03/05 06:59:18;;;;;;;0.00;0.00;;;3.00;99.90;;;;;;5105882;28;20020;-76
2023/03/05 07:01:44;;;;;;;0.10;0.10;;;4.00;99.90;;;;;;5088447;28;20418;-77
2023/03/05 07:04:14;;;;;;;0.10;0.10;;;3.20;99.90;;;;;;5088600;28;20031;-76
2023/03/05 07:06:45;;;;;;;0.10;0.10;;;3.30;99.90;;;;;;5086098;28;20097;-77
2023/03/05 07:09:14;;;;;;;0.10;0.10;;;3.50;99.90;;;;;;5088627;28;20001;-76
2023/03/05 07:11:39;;;;;;;0.03;0.03;;;3.50;99.90;;;;;;5095428;28;20020;-76
2023/03/05 07:14:11;;;;;;;0.10;0.10;;;3.80;99.90;;;;;;5087596;27;20243;-76
2023/03/05 07:16:36;;;;;;;0.00;0.00;;;3.90;99.90;;;;;;5083034;28;20257;-76
2023/03/05 07:19:06;;;;;;;0.10;0.10;;;4.00;99.90;;;;;;5083871;28;20089;-76
2023/03/05 07:21:33;;;;;;;0.10;0.10;;;4.10;99.90;;;;;;5096084;28;20024;-76
2023/03/05 07:24:01;;;;;;;0.10;0.10;;;4.30;99.90;;;;;;5088026;28;20025;-76
2023/03/05 07:26:27;;;;;;;0.20;0.20;;;4.30;99.90;;;;;;5086078;28;20008;-77
2023/03/05 07:28:56;;;;;;;0.10;0.10;;;4.70;99.90;;;;;;5113622;28;20024;-76
2023/03/05 07:31:25;;;;;;;0.10;0.10;;;4.50;99.90;;;;;;5085918;27;20526;-76
2023/03/05 07:33:53;;;;;;;0.08;0.08;;;4.60;99.90;;;;;;5080468;28;20024;-76
2023/03/05 07:36:26;;;;;;;0.00;0.00;;;4.70;99.90;;;;;;5096456;27;20024;-76
2023/03/05 07:38:52;;;;;;;;;;;4.80;99.90;;;;;;5115841;28;20067;-76
2023/03/05 07:41:19;;;;;;;0.00;0.00;;;5.00;99.90;;;;;;5116108;27;19919;-75
2023/03/05 07:43:52;;;;;;;0.10;0.10;;;5.10;99.90;;;;;;5116589;28;20012;-75
2023/03/05 07:46:21;;;;;;;0.10;0.10;;;5.20;99.90;;;;;;5113516;27;20083;-76
2023/03/05 07:48:47;;;;;;;0.08;0.08;;;5.20;99.90;;;;;;5114611;28;20054;-75
2023/03/05 07:51:15;;;;;;;0.30;0.30;;;5.30;99.90;;;;;;5113029;28;20028;-76
2023/03/05 07:54:10;;;;;;;0.10;0.10;;;5.40;99.90;;;;;;5111894;28;20055;-76
2023/03/05 07:56:39;;;;;;;;;;;5.50;99.90;;;;;;5111437;28;20029;-76
2023/03/05 07:59:19;;;;;;;0.10;0.10;;;5.40;99.90;;;;;;5109086;28;19975;-75
2023/03/05 08:01:45;;;;;;;0.10;0.10;;;5.60;99.90;;;;;;5109225;28;20016;-75
2023/03/05 08:04:11;;;;;;;0.10;0.10;;;5.70;99.90;;;;;;5109448;28;20024;-76
2023/03/05 08:06:39;;;;;;;0.03;0.03;;;5.60;99.90;;;;;;5125348;28;20505;-76
2023/03/05 08:09:05;;;;;;;6.53;5.97;;;5.70;99.90;;;;;;5107953;28;20034;-76
2023/03/05 08:11:33;;;;;;;0.10;0.10;;;5.80;99.90;;;;;;5084871;28;20028;-76
2023/03/05 08:13:59;;;;;;;25.05;23.98;;;5.90;99.90;;;;;;5103064;28;20027;-76
2023/03/05 08:16:26;;;;;;;5.35;5.15;;;5.80;99.90;;;;;;5085650;28;20087;-75
2023/03/05 08:18:56;;;;;;;0.10;0.10;;;6.00;99.90;;;;;;5084724;28;20383;-76
2023/03/05 08:21:28;;;;;;;0.17;0.17;;;6.30;99.90;;;;;;5085159;28;20035;-77
2023/03/05 08:23:56;;;;;;;3.63;3.53;;;5.50;99.90;;;;;;5087501;28;20235;-76
2023/03/05 08:26:25;;;;;;;0.13;0.13;;;6.40;99.90;;;;;;5103814;28;20145;-75
2023/03/05 08:28:51;;;;;;;0.28;0.28;;;6.40;99.90;;;;;;5084139;28;20193;-76
2023/03/05 08:31:22;;;;;;;0.10;0.10;;;6.60;99.90;;;;;;5103253;28;20024;-77
2023/03/05 08:33:49;;;;;;;0.10;0.10;;;8.30;99.90;;;;;;5102717;28;20028;-76
2023/03/05 08:36:15;;;;;;;0.63;0.63;;;6.10;99.90;;;;;;5104687;28;20027;-76
2023/03/05 08:38:43;;;;;;;0.20;0.20;;;6.00;99.90;;;;;;5086812;28;20510;-76
2023/03/05 08:41:09;;;;;;;0.20;0.20;;;6.00;99.90;;;;;;5104349;28;20323;-76
2023/03/05 08:43:35;;;;;;;0.10;0.10;;;5.90;99.90;;;;;;5103533;28;20093;-76
2023/03/05 08:46:01;;;;;;;0.05;0.05;;;5.90;99.90;;;;;;5084822;28;20024;-76
2023/03/05 08:48:31;;;;;;;7.45;7.15;;;6.30;99.90;;;;;;5101256;28;20019;-76
2023/03/05 08:51:03;;;;;;;0.90;0.90;;;4.80;99.90;;;;;;5082733;28;20032;-76
2023/03/05 08:53:29;;;;;;;0.32;0.32;;;;;;;;;;5101690;28;20020;-76
2023/03/05 08:55:57;;;;;;;5.47;5.28;;;6.00;99.90;;;;;;5101859;28;20497;-76
2023/03/05 08:58:23;;;;;;;0.52;0.52;;;;;;;;;;5083086;28;20304;-76
2023/03/05 09:00:51;;;;;;;1.42;1.38;;;6.50;99.90;;;;;;5103005;28;20078;-76
2023/03/05 09:03:20;;;;;;;0.10;0.10;;;6.40;99.90;;;;;;5103722;28;20047;-76
2023/03/05 09:05:45;;;;;;;0.10;0.10;;;6.50;99.90;;;;;;5107800;28;20139;-76
2023/03/05 09:08:11;;;;;;;15.00;13.98;;;6.60;99.90;;;;;;5101665;28;20496;-76
2023/03/05 09:10:41;;;;;;;0.10;0.10;;;6.90;99.90;;;;;;5101816;28;20334;-76
2023/03/05 09:13:07;;;;;;;0.20;0.20;;;;;;;;;;5082968;28;20024;-75
2023/03/05 09:15:33;;;;;;;11.55;10.52;;;6.90;99.90;;;;;;5083568;28;20505;-76
2023/03/05 09:18:00;;;;;;;0.15;0.15;;;8.40;99.90;;;;;;5085215;28;20024;-76
2023/03/05 09:20:26;;;;;;;0.65;0.65;;;7.20;99.90;;;;;;5102274;28;20092;-76
2023/03/05 09:22:52;;;;;;;2.38;2.25;;;;;;;;;;5100466;28;20308;-76
2023/03/05 09:25:18;;;;;;;0.10;0.10;;;6.90;99.90;;;;;;5103169;28;20022;-76
2023/03/05 09:27:44;;;;;;;3.17;2.22;;;;;;;;;;5102755;28;20037;-76
2023/03/05 09:30:11;;;;;;;17.75;16.60;;;7.00;99.90;;;;;;5101961;28;20068;-76
2023/03/05 09:32:37;;;;;;;0.65;0.65;;;;;;;;;;5085403;28;20087;-77
2023/03/05 09:35:05;;;;;;;0.30;0.30;;;7.00;99.90;;;;;;5085895;28;20042;-75
2023/03/05 09:37:31;;;;;;;0.20;0.20;;;7.00;99.90;;;;;;5101704;28;20027;-76
2023/03/05 09:39:59;;;;;;;0.13;0.13;;;7.10;99.90;;;;;;5104973;28;20411;-75
2023/03/05 09:42:27;;;;;;;2.58;2.47;;;7.00;99.90;;;;;;5105064;28;20209;-76
2023/03/05 09:45:11;;;;;;;25.20;22.60;;;7.10;99.90;;;;;;5104350;28;20031;-76
2023/03/05 09:48:14;;;;;;;0.30;0.30;;;7.10;99.90;;;;;;5091232;28;20038;-76
2023/03/05 09:51:11;;;;;;;5.95;5.70;;;7.10;99.90;;;;;;5111942;28;20039;-76
2023/03/05 09:53:47;;;;;;;3.80;2.03;;;7.20;99.90;;;;;;5107669;28;20024;-76
2023/03/05 09:56:20;;;;;;;5.00;4.78;;;5.00;99.90;;;;;;5096812;28;20023;-76
2023/03/05 09:59:01;;;;;;;0.20;0.20;;;7.40;99.90;;;;;;5101418;28;20495;-76
2023/03/05 10:01:47;;;;;;;0.20;0.20;;;7.50;99.90;;;;;;5102394;28;20062;-76
2023/03/05 10:04:25;;;;;;;0.43;0.43;;;7.60;99.90;;;;;;5116214;28;20126;-76
2023/03/05 10:07:09;;;;;;;0.15;0.15;;;7.50;99.90;;;;;;5107758;28;20047;-76
2023/03/05 10:09:46;;;;;;;0.38;0.38;;;7.70;99.90;;;;;;5101423;28;20027;-75
2023/03/05 10:12:51;;;;;;;0.88;0.88;;;7.80;99.90;;;;;;5101917;28;20044;-75
2023/03/05 10:15:50;;;;;;;1.90;1.83;;;7.90;99.90;;;;;;5018468;28;20574;-76
2023/03/05 10:18:37;;;;;;;4.18;3.97;;;8.00;99.90;;;;;;5001824;28;20037;-75
2023/03/05 10:21:16;;;;;;;14.52;13.55;;;7.90;99.90;;;;;;5019602;28;20041;-78
2023/03/05 10:24:23;;;;;;;11.55;11.07;;;7.90;99.90;;;;;;5020229;28;20052;-75
2023/03/05 10:27:00;;;;;;;0.88;0.88;;;8.10;99.90;;;;;;4965492;28;20038;-75
2023/03/05 10:29:37;;;;;;;0.40;0.40;;;8.20;99.90;;;;;;4967393;28;20042;-75
2023/03/05 10:32:59;;;;;;;1.48;1.48;;;8.30;99.90;;;;;;4969965;28;20038;-76
2023/03/05 10:35:51;;;;;;;3.83;3.63;;;8.30;99.90;;;;;;4968301;28;20180;-76
2023/03/05 10:39:03;;;;;;;0.30;0.30;;;8.30;99.90;;;;;;4968586;28;20407;-75
2023/03/05 10:42:04;;;;;;;0.10;0.10;;;8.40;99.90;;;;;;4972572;28;20253;-76
2023/03/05 10:44:54;;;;;;;0.30;0.30;;;8.50;99.90;;;;;;4969264;28;20062;-75
2023/03/05 10:47:49;;;;;;;0.15;0.15;;;8.80;99.90;;;;;;4966338;28;20099;-76
2023/03/05 10:50:27;;;;;;;0.20;0.20;;;8.80;99.90;;;;;;4970925;28;20118;-76
2023/03/05 10:53:29;;;;;;;0.65;0.65;;;9.20;99.90;;;;;;5030883;28;20506;-76
2023/03/05 10:56:00;;;;;;;0.20;0.20;;;9.10;99.90;;;;;;5025027;28;20029;-75
2023/03/05 10:58:27;;;;;;;4.40;4.13;;;9.50;99.90;;;;;;5046386;28;20510;-76
2023/03/05 11:01:30;;;;;;;4.97;4.72;;;10.80;99.90;;;;;;5052559;28;20037;-75
2023/03/05 11:03:59;;;;;;;2.20;2.10;;;6.40;99.90;;;;;;5115637;28;20696;-75
2023/03/05 11:06:36;;;;;;;0.20;0.20;;;9.60;99.90;;;;;;5108406;28;20092;-75
2023/03/05 11:09:31;;;;;;;7.30;6.97;;;9.40;99.90;;;;;;5106634;28;20662;-76
2023/03/05 11:12:25;;;;;;;1.98;1.90;;;9.80;99.90;;;;;;5122179;28;20223;-75
2023/03/05 11:15:25;;;;;;;0.40;0.40;;;8.80;99.90;;;;;;5117619;28;20030;-76
2023/03/05 11:18:20;;;;;;;0.13;0.13;;;8.40;99.90;;;;;;5123688;28;20028;-76
2023/03/05 11:20:46;;;;;;;0.20;0.20;;;8.20;99.90;;;;;;5112144;28;20024;-75
2023/03/05 11:23:26;;;;;;;2.47;2.40;;;8.10;99.90;;;;;;5106605;28;20068;-75
2023/03/05 11:26:27;;;;;;;0.20;0.20;;;8.50;99.90;;;;;;5119119;28;20061;-76
2023/03/05 11:29:16;;;;;;;0.20;0.20;;;8.70;99.90;;;;;;5101155;28;20019;-76
2023/03/05 11:31:57;;;;;;;0.60;0.60;;;8.70;99.90;;;;;;5010221;28;20032;-75
2023/03/05 11:34:35;;;;;;;2.65;2.55;;;8.70;99.90;;;;;;5033346;28;20101;-76
2023/03/05 11:37:29;;;;;;;0.20;0.20;;;8.70;99.90;;;;;;5011246;28;20040;-75
2023/03/05 11:40:18;;;;;;;0.20;0.20;;;8.60;99.90;;;;;;5008025;28;20029;-76
2023/03/05 11:42:51;;;;;;;2.92;2.67;;;8.30;99.90;;;;;;5023450;28;20038;-75
2023/03/05 11:45:18;;;;;;;0.20;0.20;;;8.40;99.90;;;;;;5029499;28;20666;-78
2023/03/05 11:48:00;;;;;;;0.20;0.20;;;8.40;99.90;;;;;;5016000;28;20065;-77
2023/03/05 11:50:32;;;;;;;0.20;0.20;;;8.60;99.90;;;;;;5029913;28;20685;-78
2023/03/05 11:53:07;;;;;;;1.95;1.95;;;8.60;99.90;;;;;;5023192;28;20021;-75
2023/03/05 11:55:54;;;;;;;0.13;0.13;;;8.70;99.90;;;;;;5025514;28;20037;-77
2023/03/05 11:58:26;;;;;;;0.20;0.20;;;8.70;99.90;;;;;;5027345;28;20508;-77
2023/03/05 12:00:55;;;;;;;4.88;4.68;;;8.70;99.90;;;;;;5026036;28;20052;-76
2023/03/05 12:03:34;;;;;;;0.40;0.40;;;8.70;99.90;;;;;;5010673;28;20040;-78
2023/03/05 12:06:25;;;;;;;0.20;0.20;;;8.60;99.90;;;;;;5022643;28;20049;-78
2023/03/05 12:08:56;;;;;;;0.20;0.20;;;8.60;99.90;;;;;;5062562;28;20047;-76
2023/03/05 12:11:27;;;;;;;0.20;0.20;;;8.90;99.90;;;;;;5100793;28;20338;-76
2023/03/05 12:13:59;;;;;;;0.20;0.20;;;9.00;99.90;;;;;;5094209;28;20024;-78
2023/03/05 12:16:54;;;;;;;0.50;0.50;;;9.20;99.90;;;;;;5106367;28;20028;-76
2023/03/05 12:19:40;;;;;;;0.13;0.13;;;9.20;99.90;;;;;;5026920;28;20037;-77
2023/03/05 12:22:18;;;;;;;3.53;3.40;;;9.20;99.90;;;;;;5026457;28;20580;-76
2023/03/05 12:24:44;;;;;;;0.20;0.20;;;9.30;99.90;;;;;;5022653;28;20040;-77
2023/03/05 12:27:14;;;;;;;0.10;0.10;;;10.00;99.90;;;;;;5003169;28;20041;-77
2023/03/05 12:29:53;;;;;;;0.45;0.45;;;8.20;99.90;;;;;;5001939;28;20029;-77
2023/03/05 12:32:21;;;;;;;0.20;0.20;;;9.60;99.80;;;;;;5003467;28;20052;-76
2023/03/05 12:34:58;;;;;;;1.00;1.00;;;9.70;97.80;;;;;;5018248;28;20061;-76
2023/03/05 12:37:24;;;;;;;0.20;0.20;;;9.70;98.90;;;;;;5001380;28;20544;-77
2023/03/05 12:40:11;;;;;;;0.20;0.20;;;9.60;99.80;;;;;;5019463;28;20648;-77
2023/03/05 12:42:36;;;;;;;0.20;0.20;;;9.60;99.90;;;;;;5018010;28;20181;-76
2023/03/05 12:45:15;;;;;;;0.10;0.10;;;9.70;99.10;;;;;;5000898;28;20021;-77
2023/03/05 12:47:42;;;;;;;0.20;0.20;;;9.80;98.00;;;;;;5019916;28;20052;-77
2023/03/05 12:50:27;;;;;;;4.47;4.20;;;9.90;98.00;;;;;;5017203;28;20318;-76
2023/03/05 12:53:03;;;;;;;0.20;0.20;;;11.50;98.00;;;;;;5003665;28;20044;-76
2023/03/05 12:55:46;;;;;;;0.57;0.57;;;9.90;98.40;;;;;;5042637;28;20372;-76
2023/03/05 12:58:42;;;;;;;0.20;0.20;;;10.10;96.60;;;;;;5082780;28;20052;-76
2023/03/05 13:01:31;;;;;;;0.20;0.20;;;9.70;97.00;;;;;;5081207;28;20039;-76
2023/03/05 13:04:09;;;;;;;0.50;0.50;;;9.70;98.20;;;;;;5019211;28;20061;-76
2023/03/05 13:06:36;;;;;;;0.20;0.20;;;9.50;99.60;;;;;;5034123;28;20044;-76
2023/03/05 13:09:06;;;;;;;0.15;0.15;;;9.30;97.20;;;;;;5037253;28;20041;-76
2023/03/05 13:11:36;;;;;;;0.77;0.77;;;9.90;99.00;;;;;;5037238;28;20017;-77
2023/03/05 13:14:28;;;;;;;3.20;3.10;;;9.80;99.90;;;;;;5021481;28;20226;-77
2023/03/05 13:16:55;;;;;;;0.20;0.20;;;9.70;99.90;;;;;;5037029;28;20451;-76
2023/03/05 13:19:21;;;;;;;0.20;0.20;;;9.70;96.70;;;;;;5021523;28;20036;-77
2023/03/05 13:21:58;;;;;;;0.20;0.20;;;9.60;98.30;;;;;;5038033;28;20104;-77
2023/03/05 13:24:24;;;;;;;0.65;0.65;;;9.80;97.20;;;;;;5020483;28;20029;-76
2023/03/05 13:26:50;;;;;;;0.25;0.25;;;9.80;96.40;;;;;;5038299;28;20342;-76
2023/03/05 13:29:29;;;;;;;0.20;0.20;;;10.20;96.00;;;;;;5038065;28;20183;-77
2023/03/05 13:32:16;;;;;;;0.20;0.20;;;10.00;95.10;;;;;;5038131;28;20245;-76
2023/03/05 13:34:46;;;;;;;0.20;0.20;;;9.70;96.10;;;;;;5037456;28;20068;-76